Time;durP1;ratioP1;P1;durP2;ratioP2;P2;SDS_P1;SDS_P2;PMS_P1;PMS_P2;Temp;Humidity;BMP_temperature;BMP_pressure;BME280_temperature;BME280_humidity;BME280_pressure;Samples;Min_cycle;Max_cycle;Signal;HPM_P1;HPM_P2
2023/08/02 00:00:10;;;;;;;3.30;1.57;;;;;;;17.27;71.61;97827.09;4910571;29;20230;-61
2023/08/02 00:02:41;;;;;;;4.47;1.60;;;;;;;17.51;71.28;97824.69;4906972;29;20260;-60
2023/08/02 00:05:08;;;;;;;3.27;1.60;;;;;;;17.49;70.43;97810.91;4910064;29;20221;-61
2023/08/02 00:07:34;;;;;;;5.20;1.40;;;;;;;17.49;70.49;97818.03;4906221;29;20230;-61
2023/08/02 00:10:03;;;;;;;4.50;1.67;;;;;;;17.55;70.11;97807.41;4910111;29;20244;-61
2023/08/02 00:12:30;;;;;;;3.27;1.27;;;;;;;17.56;69.60;97795.03;4905257;29;20252;-61
2023/08/02 00:14:56;;;;;;;4.77;1.43;;;;;;;17.48;69.13;97782.91;4906052;29;20689;-62
2023/08/02 00:17:29;;;;;;;2.63;1.30;;;;;;;17.31;72.03;97777.41;4905713;29;20236;-61
2023/08/02 00:19:55;;;;;;;3.67;1.10;;;;;;;17.23;71.65;97760.00;4926107;28;20275;-61
2023/08/02 00:22:47;;;;;;;2.90;1.30;;;;;;;17.17;72.16;97758.22;4914315;29;20243;-61
2023/08/02 00:25:15;;;;;;;4.77;1.60;;;;;;;17.09;72.52;97761.09;4928810;29;20235;-61
2023/08/02 00:27:42;;;;;;;2.90;1.43;;;;;;;17.05;72.93;97752.84;4911304;29;20228;-61
2023/08/02 00:30:09;;;;;;;5.37;1.40;;;;;;;17.06;74.03;97751.00;4914689;29;20252;-61
2023/08/02 00:32:44;;;;;;;8.20;1.77;;;;;;;16.96;74.14;97747.00;4911360;29;20258;-61
2023/08/02 00:35:10;;;;;;;4.63;1.60;;;;;;;16.95;73.85;97741.94;4910807;29;20242;-61
2023/08/02 00:37:37;;;;;;;3.67;1.60;;;;;;;16.99;73.93;97744.97;4910306;29;20238;-60
2023/08/02 00:40:04;;;;;;;3.53;1.50;;;;;;;16.88;73.64;97749.91;4913982;29;20243;-61
2023/08/02 00:42:32;;;;;;;2.30;1.50;;;;;;;16.79;74.28;97744.06;4911128;29;20257;-61
2023/08/02 00:44:59;;;;;;;2.80;1.53;;;;;;;16.80;74.90;97748.31;4911478;29;20234;-61
2023/08/02 00:47:29;;;;;;;5.03;1.80;;;;;;;16.85;75.01;97755.59;4916678;29;20227;-62
2023/08/02 00:49:56;;;;;;;4.87;1.60;;;;;;;16.81;75.21;97754.41;4909143;29;20237;-61
2023/08/02 00:52:47;;;;;;;3.03;1.50;;;;;;;16.89;74.12;97763.88;4908479;29;20240;-62
2023/08/02 00:55:14;;;;;;;3.17;1.90;;;;;;;16.87;75.31;97750.91;4912035;29;20224;-61
2023/08/02 00:57:42;;;;;;;5.30;1.63;;;;;;;16.88;74.48;97749.91;4906619;29;20231;-61
2023/08/02 01:00:09;;;;;;;5.13;1.60;;;;;;;17.04;73.60;97745.94;4905449;29;20227;-62
2023/08/02 01:02:36;;;;;;;3.40;1.67;;;;;;;16.91;74.14;97744.19;4896955;29;20692;-61
2023/08/02 01:05:03;;;;;;;5.33;1.97;;;;;;;16.91;75.68;97741.56;4912555;29;20249;-61
2023/08/02 01:07:36;;;;;;;4.23;1.87;;;;;;;16.92;75.19;97739.72;4912151;29;20239;-61
2023/08/02 01:10:09;;;;;;;3.23;1.80;;;;;;;16.83;76.17;97750.50;4925515;29;20263;-61
2023/08/02 01:12:40;;;;;;;4.33;1.50;;;;;;;16.87;76.51;97735.09;4920807;29;20239;-61
2023/08/02 01:15:09;;;;;;;3.77;1.70;;;;;;;16.91;74.98;97731.00;4916351;29;20613;-61
2023/08/02 01:17:38;;;;;;;4.97;1.70;;;;;;;16.95;75.00;97724.28;4910598;29;20320;-61
2023/08/02 01:20:07;;;;;;;3.73;1.73;;;;;;;16.99;74.28;97715.97;4928056;29;20240;-63
2023/08/02 01:22:34;;;;;;;6.47;2.00;;;;;;;17.04;75.40;97740.66;4894171;29;20233;-61
2023/08/02 01:25:02;;;;;;;3.87;1.57;;;;;;;17.06;74.29;97730.72;4913931;29;20244;-61
2023/08/02 01:27:35;;;;;;;6.27;2.10;;;;;;;17.19;73.67;97708.69;4908592;29;20705;-61
2023/08/02 01:30:04;;;;;;;4.23;1.70;;;;;;;17.16;74.03;97703.06;4910696;29;20231;-61
2023/08/02 01:32:31;;;;;;;3.77;1.87;;;;;;;17.16;73.79;97703.06;4907751;29;20281;-61
2023/08/02 01:34:58;;;;;;;4.23;1.67;;;;;;;17.25;73.70;97699.13;4912809;29;20697;-61
2023/08/02 01:37:32;;;;;;;4.30;1.90;;;;;;;17.24;73.16;97673.78;4906293;29;20281;-61
2023/08/02 01:39:59;;;;;;;3.27;1.70;;;;;;;17.30;74.26;97680.81;4917835;29;20593;-60
2023/08/02 01:42:29;;;;;;;3.93;1.60;;;;;;;17.22;75.29;97667.91;4918347;29;20237;-61
2023/08/02 01:44:56;;;;;;;3.40;1.57;;;;;;;17.07;76.70;97665.59;4916518;29;20229;-61
2023/08/02 01:47:26;;;;;;;4.57;2.17;;;;;;;17.09;75.56;97659.09;4917474;29;20224;-61
2023/08/02 01:49:55;;;;;;;2.53;1.60;;;;;;;17.15;74.31;97654.78;4912556;29;20248;-61
2023/08/02 01:52:21;;;;;;;5.37;1.87;;;;;;;17.30;73.94;97658.91;4911947;29;20233;-61
2023/08/02 01:54:49;;;;;;;3.83;1.80;;;;;;;17.38;73.87;97661.25;4909315;29;20236;-60
2023/08/02 01:57:16;;;;;;;6.83;1.73;;;;;;;17.54;72.03;97659.88;4904029;29;20560;-61
2023/08/02 01:59:43;;;;;;;7.83;2.20;;;;;;;17.46;73.49;97654.91;4912218;29;20320;-61
2023/08/02 02:02:09;;;;;;;4.10;1.70;;;;;;;17.41;73.65;97647.63;4911660;29;20286;-61
2023/08/02 02:04:36;;;;;;;2.67;1.67;;;;;;;17.45;73.30;97642.75;4911942;29;20246;-61
2023/08/02 02:07:03;;;;;;;5.77;1.73;;;;;;;17.47;72.68;97640.69;4912375;29;20240;-62
2023/08/02 02:09:30;;;;;;;4.20;1.73;;;;;;;17.50;73.27;97627.03;4904839;29;20234;-61
2023/08/02 02:11:58;;;;;;;2.80;1.60;;;;;;;17.67;71.83;97625.41;4912395;29;20248;-62
2023/08/02 02:14:25;;;;;;;4.97;1.90;;;;;;;17.74;71.50;97624.53;4909063;28;20222;-61
2023/08/02 02:16:53;;;;;;;2.50;1.80;;;;;;;17.69;71.63;97625.22;4913481;29;20238;-62
2023/08/02 02:19:20;;;;;;;4.40;1.80;;;;;;;17.74;71.09;97630.63;4912901;28;20238;-61
2023/08/02 02:21:47;;;;;;;6.00;1.90;;;;;;;17.67;71.85;97632.53;4914069;29;20235;-62
2023/08/02 02:24:14;;;;;;;6.93;1.87;;;;;;;17.69;71.96;97622.56;4931127;29;20227;-61
2023/08/02 02:26:40;;;;;;;4.33;1.90;;;;;;;17.64;72.09;97619.78;4909262;29;20264;-61
2023/08/02 02:29:08;;;;;;;2.53;1.70;;;;;;;17.60;72.35;97622.03;4917955;29;20235;-61
2023/08/02 02:31:35;;;;;;;4.67;1.70;;;;;;;17.73;71.65;97615.00;4915478;29;23564;-61
2023/08/02 02:34:02;;;;;;;5.20;1.40;;;;;;;17.68;71.42;97605.13;4916857;29;20234;-62
2023/08/02 02:36:29;;;;;;;5.50;1.60;;;;;;;17.69;71.62;97596.97;4912472;29;20285;-60
2023/08/02 02:38:56;;;;;;;2.67;1.63;;;;;;;17.70;71.10;97600.44;4912867;29;20677;-59
2023/08/02 02:41:22;;;;;;;2.77;1.60;;;;;;;17.75;71.10;97602.38;4910343;29;20221;-61
2023/08/02 02:43:49;;;;;;;4.17;1.80;;;;;;;17.83;70.94;97605.53;4911841;29;20238;-60
2023/08/02 02:46:17;;;;;;;4.83;1.60;;;;;;;17.81;70.94;97602.31;4924794;29;20242;-60
2023/08/02 02:48:44;;;;;;;5.07;1.80;;;;;;;17.85;70.15;97600.03;4921076;29;20291;-59
2023/08/02 02:51:11;;;;;;;3.83;1.77;;;;;;;17.95;69.89;97581.81;4915971;29;20272;-59
2023/08/02 02:53:37;;;;;;;4.03;1.67;;;;;;;17.92;71.97;97597.31;4913222;29;20243;-60
2023/08/02 02:56:04;;;;;;;6.43;1.80;;;;;;;17.86;71.50;97593.72;4912612;29;20259;-60
2023/08/02 02:58:31;;;;;;;3.70;1.70;;;;;;;17.81;71.80;97594.41;4911527;29;20226;-61
2023/08/02 03:00:58;;;;;;;4.10;1.77;;;;;;;17.92;71.45;97581.47;4917751;28;20258;-60
2023/08/02 03:03:25;;;;;;;5.07;1.90;;;;;;;17.81;75.40;97585.66;4906996;29;20219;-60
2023/08/02 03:05:53;;;;;;;3.33;1.60;;;;;;;17.72;77.41;97590.47;4918782;29;20229;-60
2023/08/02 03:08:20;;;;;;;3.57;1.60;;;;;;;17.59;78.98;97593.25;4909595;29;20313;-60
2023/08/02 03:10:47;;;;;;;5.17;1.87;;;;;;;17.49;79.81;97585.88;4912670;29;20234;-60
2023/08/02 03:13:13;;;;;;;7.43;2.20;;;;;;;17.39;80.91;97591.66;4913764;29;20762;-60
2023/08/02 03:15:40;;;;;;;3.63;1.77;;;;;;;17.34;81.82;97580.97;4905681;29;20244;-60
2023/08/02 03:18:06;;;;;;;3.20;2.00;;;;;;;17.24;83.54;97578.84;4911816;29;20245;-61
2023/08/02 03:20:34;;;;;;;3.80;1.80;;;;;;;17.15;86.17;97572.25;4911330;29;20905;-60
2023/08/02 03:23:01;;;;;;;4.67;2.30;;;;;;;17.02;87.24;97579.25;4911518;29;20236;-60
2023/08/02 03:25:27;;;;;;;3.53;2.40;;;;;;;17.04;87.03;97585.13;4906551;29;20238;-60
2023/08/02 03:27:54;;;;;;;4.10;2.10;;;;;;;16.96;87.53;97572.19;4909269;29;20242;-60
2023/08/02 03:33:02;;;;;;;3.53;2.20;;;;;;;16.76;91.92;97554.75;5088702;23;20287;-64
2023/08/02 03:35:28;;;;;;;4.53;2.20;;;;;;;16.71;92.24;97561.69;4955455;28;20216;-64
2023/08/02 03:37:56;;;;;;;4.83;2.40;;;;;;;16.61;94.19;97552.47;4955464;28;20888;-64
2023/08/02 03:40:24;;;;;;;3.80;2.17;;;;;;;16.62;94.13;97542.72;4950377;28;20225;-64
2023/08/02 03:42:50;;;;;;;5.70;2.07;;;;;;;16.52;96.35;97536.09;4954590;28;20242;-64
2023/08/02 03:45:17;;;;;;;5.90;2.70;;;;;;;16.47;96.58;97540.41;4951423;28;20237;-64
2023/08/02 03:47:44;;;;;;;4.03;2.47;;;;;;;16.38;98.07;97543.31;4963726;28;20253;-64
2023/08/02 03:50:10;;;;;;;4.33;2.50;;;;;;;16.34;98.20;97539.50;4954360;28;20313;-64
2023/08/02 03:52:37;;;;;;;6.13;2.50;;;;;;;16.30;99.50;97527.78;4952846;28;20580;-64
2023/08/02 03:55:06;;;;;;;6.13;2.60;;;;;;;16.35;98.66;97521.88;4953526;28;20235;-64
2023/08/02 03:57:32;;;;;;;6.20;2.40;;;;;;;16.29;99.79;97526.19;4953675;28;20234;-63
2023/08/02 03:59:59;;;;;;;3.53;2.30;;;;;;;16.29;99.12;97526.19;4955313;28;20234;-63
2023/08/02 04:02:38;;;;;;;6.23;2.30;;;;;;;16.26;100.00;97520.53;4953200;28;20233;-63
2023/08/02 04:05:05;;;;;;;4.10;2.10;;;;;;;16.26;100.00;97518.69;4955713;28;21200;-63
2023/08/02 04:07:32;;;;;;;3.47;2.23;;;;;;;16.21;100.00;97510.63;4950209;28;20633;-63
2023/08/02 04:09:58;;;;;;;3.27;1.70;;;;;;;16.16;100.00;97500.78;4954275;28;20230;-65
2023/08/02 04:12:30;;;;;;;3.03;2.20;;;;;;;16.18;100.00;97488.19;4951935;28;20304;-65
2023/08/02 04:14:56;;;;;;;3.17;2.10;;;;;;;16.19;100.00;97487.19;4956085;28;20238;-65
2023/08/02 04:17:29;;;;;;;6.60;2.00;;;;;;;16.14;100.00;97473.03;4950506;28;20666;-65
2023/08/02 04:19:55;;;;;;;4.57;2.00;;;;;;;16.12;100.00;97468.00;4968576;28;20231;-65
2023/08/02 04:22:26;;;;;;;2.87;1.70;;;;;;;16.14;100.00;97465.94;4951842;28;20225;-65
2023/08/02 04:24:52;;;;;;;3.37;1.43;;;;;;;16.12;100.00;97461.91;4958253;28;20227;-65
2023/08/02 04:27:19;;;;;;;2.87;1.30;;;;;;;16.14;100.00;97465.94;4953211;28;20709;-65
2023/08/02 04:29:47;;;;;;;1.60;1.20;;;;;;;16.22;100.00;97454.34;4955107;28;20230;-65
2023/08/02 04:32:13;;;;;;;2.30;1.40;;;;;;;16.26;100.00;97449.47;4956954;28;20232;-65
2023/08/02 04:34:40;;;;;;;2.37;1.30;;;;;;;16.19;100.00;97442.41;4950611;28;20706;-65
2023/08/02 04:37:06;;;;;;;2.03;1.10;;;;;;;16.18;100.00;97435.53;4955776;28;20621;-63
2023/08/02 04:39:33;;;;;;;2.10;1.13;;;;;;;16.26;100.00;97431.03;4952824;28;20227;-63
2023/08/02 04:42:01;;;;;;;2.33;1.40;;;;;;;16.29;100.00;97420.84;4954048;28;20242;-64
2023/08/02 04:44:28;;;;;;;3.03;1.73;;;;;;;16.30;100.00;97413.78;4948223;28;20225;-65
2023/08/02 04:46:56;;;;;;;2.87;1.70;;;;;;;16.33;100.00;97414.13;4962266;28;20273;-65
2023/08/02 04:49:22;;;;;;;2.00;1.40;;;;;;;16.30;100.00;97427.72;4955417;28;20214;-65
2023/08/02 04:51:49;;;;;;;2.80;1.50;;;;;;;16.31;100.00;97434.59;4954885;28;20242;-65
2023/08/02 04:54:16;;;;;;;3.00;1.60;;;;;;;16.33;100.00;97422.03;4951864;28;20314;-65
2023/08/02 04:56:42;;;;;;;3.13;1.80;;;;;;;16.33;100.00;97418.59;4954606;28;20237;-65
2023/08/02 04:59:10;;;;;;;3.33;2.20;;;;;;;16.33;100.00;97416.75;4956308;28;20226;-65
2023/08/02 05:01:36;;;;;;;3.73;2.40;;;;;;;16.36;100.00;97420.81;4950750;28;20242;-65
2023/08/02 05:04:07;;;;;;;3.57;2.10;;;;;;;16.41;100.00;97412.22;4961353;28;20238;-65
2023/08/02 05:06:34;;;;;;;2.57;1.63;;;;;;;16.42;100.00;97421.75;4952432;28;20257;-65
2023/08/02 05:09:04;;;;;;;4.30;1.87;;;;;;;16.57;100.00;97421.38;4952014;28;20716;-66
2023/08/02 05:11:31;;;;;;;2.90;1.87;;;;;;;16.56;100.00;97417.94;4950583;28;20232;-64
2023/08/02 05:13:58;;;;;;;3.43;1.67;;;;;;;16.59;100.00;97416.69;4955564;28;20322;-64
2023/08/02 05:16:24;;;;;;;3.47;1.60;;;;;;;16.62;100.00;97434.69;4952671;28;20228;-65
2023/08/02 05:18:51;;;;;;;2.77;1.80;;;;;;;16.68;100.00;97426.75;4953982;28;20226;-64
2023/08/02 05:21:19;;;;;;;2.23;1.60;;;;;;;16.67;100.00;97406.69;4953746;28;20616;-63
2023/08/02 05:23:46;;;;;;;1.57;1.30;;;;;;;16.65;100.00;97398.19;4957553;28;20317;-64
2023/08/02 05:26:13;;;;;;;1.73;1.10;;;;;;;16.78;100.00;97396.44;4953350;28;20706;-64
2023/08/02 05:28:40;;;;;;;2.43;1.53;;;;;;;16.73;100.00;97386.53;4951468;28;21129;-65
2023/08/02 05:31:10;;;;;;;3.83;1.10;;;;;;;16.74;100.00;97390.78;4957064;28;20241;-65
2023/08/02 05:33:36;;;;;;;2.07;1.40;;;;;;;16.76;100.00;97401.13;4951024;28;20248;-65
2023/08/02 05:36:05;;;;;;;2.40;1.40;;;;;;;16.76;100.00;97401.13;4953766;28;20258;-64
2023/08/02 05:38:34;;;;;;;1.80;1.23;;;;;;;16.77;100.00;97390.34;4954251;28;20225;-64
2023/08/02 05:41:01;;;;;;;2.37;1.50;;;;;;;16.74;100.00;97387.34;4954784;28;20730;-64
2023/08/02 05:43:28;;;;;;;2.37;1.20;;;;;;;16.78;100.00;97372.72;4951486;28;20218;-64
2023/08/02 05:45:54;;;;;;;2.17;1.13;;;;;;;16.81;100.00;97367.78;4954397;28;20235;-64
2023/08/02 05:48:21;;;;;;;1.70;1.13;;;;;;;16.87;100.00;97365.28;4955750;28;20985;-65
2023/08/02 05:50:48;;;;;;;2.50;1.23;;;;;;;16.96;100.00;97367.41;4956071;28;20253;-65
2023/08/02 05:53:14;;;;;;;2.03;1.30;;;;;;;17.10;100.00;97348.78;4956873;28;20230;-65
2023/08/02 05:55:42;;;;;;;1.33;1.10;;;;;;;17.18;100.00;97361.66;4951469;28;20251;-64
2023/08/02 05:58:09;;;;;;;1.60;1.10;;;;;;;17.20;100.00;97350.91;4957511;28;20225;-64
2023/08/02 06:00:36;;;;;;;1.83;1.13;;;;;;;17.34;100.00;97364.69;4955571;28;30036;-64
2023/08/02 06:03:03;;;;;;;3.20;1.27;;;;;;;17.29;100.00;97356.66;4962820;28;20220;-64
2023/08/02 06:05:30;;;;;;;2.47;0.90;;;;;;;17.33;100.00;97365.72;4954081;28;20632;-64
2023/08/02 06:07:56;;;;;;;3.23;1.10;;;;;;;17.33;100.00;97357.81;4956722;28;20235;-65
2023/08/02 06:10:23;;;;;;;1.97;1.30;;;;;;;17.26;100.00;97356.06;4956785;28;20667;-64
2023/08/02 06:12:51;;;;;;;3.10;1.50;;;;;;;17.34;100.00;97357.59;4959620;28;20326;-64
2023/08/02 06:15:18;;;;;;;2.00;1.43;;;;;;;17.35;100.00;97347.84;4954878;28;20607;-64
2023/08/02 06:17:44;;;;;;;2.27;1.53;;;;;;;17.41;100.00;97342.47;4959796;28;20230;-64
2023/08/02 06:20:11;;;;;;;2.20;1.30;;;;;;;17.43;100.00;97333.53;4956781;28;20585;-64
2023/08/02 06:22:38;;;;;;;2.40;1.47;;;;;;;17.33;100.00;97324.34;4953989;28;20709;-64
2023/08/02 06:25:05;;;;;;;1.70;1.07;;;;;;;17.35;100.00;97326.72;4957721;28;20232;-64
2023/08/02 06:27:32;;;;;;;1.87;1.23;;;;;;;17.36;100.00;97320.44;4955709;28;20238;-64
2023/08/02 06:30:01;;;;;;;1.60;0.90;;;;;;;17.29;100.00;97322.34;4957700;28;20786;-64
2023/08/02 06:32:29;;;;;;;2.60;1.13;;;;;;;17.38;100.00;97318.38;4951401;28;20227;-64
2023/08/02 06:34:55;;;;;;;1.47;0.93;;;;;;;17.40;100.00;97313.66;4958438;28;20242;-64
2023/08/02 06:37:47;;;;;;;1.97;0.97;;;;;;;17.61;100.00;97306.22;4956891;28;20675;-64
2023/08/02 06:40:13;;;;;;;1.20;0.80;;;;;;;17.73;100.00;97303.59;4957557;28;20231;-64
2023/08/02 06:42:40;;;;;;;1.20;0.70;;;;;;;17.99;100.00;97303.16;4956620;28;20241;-64
2023/08/02 06:45:09;;;;;;;1.43;0.70;;;;;;;17.90;100.00;97304.50;4956701;28;20235;-64
2023/08/02 06:47:36;;;;;;;1.20;0.80;;;;;;;17.94;99.90;97305.66;4952440;28;21314;-64
2023/08/02 06:50:03;;;;;;;1.50;0.90;;;;;;;17.88;100.00;97317.13;4954742;28;20228;-64
2023/08/02 06:52:30;;;;;;;0.93;0.80;;;;;;;17.68;100.00;97314.84;4956338;28;20258;-64
2023/08/02 06:54:56;;;;;;;1.07;0.60;;;;;;;17.65;100.00;97310.81;4971647;28;20232;-64
2023/08/02 06:57:31;;;;;;;1.53;0.70;;;;;;;17.24;100.00;97308.03;4956576;28;20238;-64
2023/08/02 06:59:58;;;;;;;2.27;0.80;;;;;;;17.31;100.00;97296.56;4955982;28;20273;-64
2023/08/02 07:02:31;;;;;;;0.63;0.50;;;;;;;17.23;100.00;97293.22;4952845;28;20242;-64
2023/08/02 07:04:57;;;;;;;1.10;0.80;;;;;;;17.26;100.00;97282.22;4958774;28;20228;-64
2023/08/02 07:07:29;;;;;;;1.77;0.97;;;;;;;17.33;100.00;97295.31;4953394;28;20228;-64
2023/08/02 07:09:55;;;;;;;1.70;1.07;;;;;;;17.43;100.00;97289.47;4953356;28;20242;-64
2023/08/02 07:12:48;;;;;;;2.37;1.07;;;;;;;17.60;100.00;97265.06;4956170;28;20713;-64
2023/08/02 07:15:15;;;;;;;1.70;1.13;;;;;;;17.70;100.00;97255.50;4956836;28;20218;-64
2023/08/02 07:17:44;;;;;;;1.37;1.00;;;;;;;17.80;100.00;97257.59;4951031;28;20717;-64
2023/08/02 07:20:11;;;;;;;5.20;1.20;;;;;;;17.91;100.00;97260.44;4954386;28;20366;-64
2023/08/02 07:22:38;;;;;;;2.00;0.90;;;;;;;18.13;100.00;97245.59;4952273;28;20226;-64
2023/08/02 07:25:05;;;;;;;2.70;1.40;;;;;;;18.38;100.00;97260.34;4956768;28;20228;-64
2023/08/02 07:27:32;;;;;;;3.57;0.93;;;;;;;18.53;96.87;97238.72;4953351;28;20227;-64
2023/08/02 07:29:58;;;;;;;1.20;0.93;;;;;;;18.67;98.62;97249.78;4953824;28;20316;-64
2023/08/02 07:32:29;;;;;;;2.23;0.90;;;;;;;18.51;98.46;97240.78;4951110;28;20234;-64
2023/08/02 07:34:57;;;;;;;1.20;0.87;;;;;;;18.68;95.02;97243.47;4953540;28;20228;-64
2023/08/02 07:37:29;;;;;;;1.37;1.00;;;;;;;18.52;96.94;97241.56;4951042;28;20226;-64
2023/08/02 07:39:55;;;;;;;1.53;1.03;;;;;;;18.41;97.97;97238.75;4956103;28;20222;-65
2023/08/02 07:42:47;;;;;;;1.57;1.10;;;;;;;18.26;98.27;97241.09;4954093;28;20246;-64
2023/08/02 07:45:14;;;;;;;1.93;0.93;;;;;;;18.39;98.61;97224.97;4956914;28;20251;-65
2023/08/02 07:47:41;;;;;;;2.20;1.03;;;;;;;18.42;98.71;97223.72;4952221;28;20289;-64
2023/08/02 07:50:09;;;;;;;2.37;1.20;;;;;;;18.55;97.85;97223.41;4955001;28;20231;-64
2023/08/02 07:52:36;;;;;;;4.10;1.27;;;;;;;18.48;98.97;97220.13;4968448;28;31746;-64
2023/08/02 07:55:02;;;;;;;2.00;1.30;;;;;;;18.42;98.88;97221.84;4955508;28;20239;-64
2023/08/02 07:57:32;;;;;;;2.37;1.50;;;;;;;18.51;98.11;97202.97;4961810;28;20871;-64
2023/08/02 07:59:59;;;;;;;2.10;1.40;;;;;;;18.49;99.03;97205.06;4957514;28;20765;-64
2023/08/02 08:02:38;;;;;;;2.70;1.43;;;;;;;18.57;98.84;97202.03;4951676;28;20241;-64
2023/08/02 08:05:06;;;;;;;1.67;1.20;;;;;;;18.77;96.32;97206.84;4956559;28;20239;-64
2023/08/02 08:07:35;;;;;;;3.17;1.40;;;;;;;18.57;99.67;97218.69;4954123;28;20314;-64
2023/08/02 08:10:01;;;;;;;1.70;1.33;;;;;;;18.52;99.78;97221.25;4954550;28;20237;-64
2023/08/02 08:12:29;;;;;;;2.40;1.60;;;;;;;18.54;99.70;97207.78;4960814;28;20282;-64
2023/08/02 08:14:56;;;;;;;3.27;1.53;;;;;;;18.39;99.96;97221.53;4956351;28;20254;-64
2023/08/02 08:17:47;;;;;;;5.20;1.57;;;;;;;18.42;100.00;97232.41;4953399;28;20291;-64
2023/08/02 08:20:14;;;;;;;3.00;2.07;;;;;;;18.46;100.00;97230.13;4955886;28;20240;-63
2023/08/02 08:22:42;;;;;;;2.90;1.90;;;;;;;18.29;100.00;97232.69;4958767;28;20251;-63
2023/08/02 08:25:09;;;;;;;3.40;1.90;;;;;;;18.13;100.00;97223.69;4955848;28;20230;-63
2023/08/02 08:27:36;;;;;;;3.70;2.23;;;;;;;18.08;100.00;97234.16;4952384;28;20239;-65
2023/08/02 08:30:04;;;;;;;3.03;1.93;;;;;;;18.13;100.00;97224.47;4952720;28;20732;-64
2023/08/02 08:32:30;;;;;;;2.77;2.00;;;;;;;18.14;100.00;97210.22;4949518;28;20433;-65
2023/08/02 08:34:57;;;;;;;2.80;1.80;;;;;;;18.04;100.00;97210.03;4967015;28;20319;-64
2023/08/02 08:37:29;;;;;;;2.60;2.00;;;;;;;18.18;100.00;97215.03;4950567;28;20235;-64
2023/08/02 08:39:57;;;;;;;4.43;2.10;;;;;;;18.14;100.00;97207.59;4952132;28;20253;-65
2023/08/02 08:42:29;;;;;;;3.93;2.00;;;;;;;18.35;100.00;97202.69;4945133;28;20546;-64
2023/08/02 08:44:58;;;;;;;3.47;2.10;;;;;;;18.51;100.00;97216.19;4948884;28;20248;-64
2023/08/02 08:47:29;;;;;;;5.00;2.63;;;;;;;18.52;99.91;97194.00;4949646;28;20309;-64
2023/08/02 08:50:02;;;;;;;4.30;2.37;;;;;;;18.47;98.91;97202.66;4953587;28;20237;-64
2023/08/02 08:52:34;;;;;;;4.47;2.30;;;;;;;18.54;99.49;97198.03;4950201;28;20234;-63
2023/08/02 08:55:03;;;;;;;3.53;2.60;;;;;;;18.59;98.97;97192.81;4959855;28;20298;-64
2023/08/02 08:57:33;;;;;;;5.37;2.50;;;;;;;18.58;100.00;97179.84;4962852;28;20219;-63
2023/08/02 09:00:01;;;;;;;3.00;2.27;;;;;;;18.56;100.00;97180.06;4950264;28;20716;-64
2023/08/02 09:02:32;;;;;;;3.57;2.23;;;;;;;18.51;100.00;97195.88;4951797;28;20249;-64
2023/08/02 09:04:58;;;;;;;3.27;2.37;;;;;;;18.53;100.00;97196.44;4956117;28;20239;-64
2023/08/02 09:07:29;;;;;;;3.67;2.17;;;;;;;18.63;100.00;97189.69;4957549;28;20282;-64
2023/08/02 09:09:56;;;;;;;4.73;2.10;;;;;;;18.55;100.00;97186.41;4952751;28;20324;-63
2023/08/02 09:12:49;;;;;;;3.93;2.27;;;;;;;18.47;100.00;97172.78;4950335;28;20251;-64
2023/08/02 09:15:16;;;;;;;4.00;2.47;;;;;;;18.48;100.00;97177.84;4951338;28;20217;-64
2023/08/02 09:17:47;;;;;;;5.23;1.87;;;;;;;18.56;100.00;97176.66;4950585;28;20232;-63
2023/08/02 09:20:14;;;;;;;4.10;1.67;;;;;;;18.49;100.00;97158.31;4972234;28;21014;-64
2023/08/02 09:22:41;;;;;;;3.20;1.80;;;;;;;18.57;100.00;97160.53;4947203;28;20256;-64
2023/08/02 09:25:19;;;;;;;6.20;1.60;;;;;;;18.49;100.00;97160.97;4965786;28;20295;-64
2023/08/02 09:27:47;;;;;;;2.20;1.93;;;;;;;18.38;100.00;97167.88;4951860;28;20260;-64
2023/08/02 09:30:24;;;;;;;2.47;1.60;;;;;;;18.44;100.00;97164.28;4958470;28;20236;-64
2023/08/02 09:33:00;;;;;;;2.53;1.67;;;;;;;18.46;100.00;97160.63;4952284;28;20737;-65
2023/08/02 09:35:27;;;;;;;2.50;1.70;;;;;;;18.48;100.00;97166.47;4953087;28;20634;-64
2023/08/02 09:37:54;;;;;;;5.50;1.90;;;;;;;18.38;100.00;97169.75;4960448;28;20699;-65
2023/08/02 09:40:33;;;;;;;3.93;2.10;;;;;;;18.37;100.00;97155.72;4955091;28;20224;-65
2023/08/02 09:43:01;;;;;;;6.23;1.83;;;;;;;18.14;100.00;97167.97;4960917;28;20237;-65
2023/08/02 09:45:33;;;;;;;2.17;1.90;;;;;;;18.29;100.00;97150.81;4951821;28;20223;-65
2023/08/02 09:48:00;;;;;;;3.07;1.90;;;;;;;18.26;100.00;97146.00;4957098;28;20233;-64
2023/08/02 09:50:27;;;;;;;3.27;1.63;;;;;;;18.26;100.00;97154.75;4954476;28;20210;-64
2023/08/02 09:52:54;;;;;;;6.70;2.20;;;;;;;18.18;100.00;97131.34;4959680;28;20249;-63
2023/08/02 09:55:21;;;;;;;4.50;2.30;;;;;;;18.20;100.00;97139.84;4961212;28;20221;-63
2023/08/02 09:57:49;;;;;;;2.63;2.30;;;;;;;18.29;100.00;97149.00;4959054;28;20236;-63
2023/08/02 10:00:17;;;;;;;3.67;1.93;;;;;;;18.41;100.00;97130.44;4958318;28;20626;-63
2023/08/02 10:02:48;;;;;;;3.33;2.10;;;;;;;18.53;100.00;97133.03;4953834;28;20237;-63
2023/08/02 10:05:17;;;;;;;3.93;2.20;;;;;;;18.64;100.00;97110.19;4956097;28;20375;-63
2023/08/02 10:07:47;;;;;;;2.67;2.00;;;;;;;18.58;100.00;97114.56;4956829;28;20252;-63
2023/08/02 10:10:17;;;;;;;6.47;2.17;;;;;;;18.64;100.00;97088.25;4957896;28;20846;-63
2023/08/02 10:12:49;;;;;;;8.83;3.33;;;;;;;18.69;100.00;97081.19;4954121;28;20635;-64
2023/08/02 10:15:17;;;;;;;3.60;2.30;;;;;;;18.86;100.00;97098.91;4954268;28;20240;-64
2023/08/02 10:17:47;;;;;;;3.83;2.60;;;;;;;19.02;100.00;97086.72;4955324;28;20598;-64
2023/08/02 10:20:14;;;;;;;4.33;2.70;;;;;;;18.97;100.00;97086.63;4956634;28;20236;-64
2023/08/02 10:22:41;;;;;;;4.33;2.60;;;;;;;19.07;100.00;97091.28;4951444;28;20249;-63
2023/08/02 10:25:09;;;;;;;4.30;3.00;;;;;;;19.02;100.00;97079.59;4956105;28;20315;-63
2023/08/02 10:27:36;;;;;;;5.33;2.93;;;;;;;18.99;100.00;97068.69;4957920;28;20241;-63
2023/08/02 10:30:04;;;;;;;4.90;3.23;;;;;;;18.98;100.00;97082.94;4959024;28;20568;-63
2023/08/02 10:32:31;;;;;;;6.77;3.93;;;;;;;18.93;100.00;97078.38;4951636;28;20236;-63
2023/08/02 10:34:59;;;;;;;4.93;3.20;;;;;;;18.99;100.00;97074.78;4953182;28;20239;-63
2023/08/02 10:37:52;;;;;;;5.93;3.67;;;;;;;18.87;100.00;97063.47;4953449;28;20221;-63
2023/08/02 10:40:21;;;;;;;5.37;3.57;;;;;;;19.00;100.00;97063.16;4954835;28;20219;-63
2023/08/02 10:43:03;;;;;;;6.90;3.70;;;;;;;19.05;100.00;97064.28;4956319;28;20298;-63
2023/08/02 10:45:29;;;;;;;8.27;3.90;;;;;;;19.23;99.00;97045.44;4951889;28;20582;-63
2023/08/02 10:48:24;;;;;;;5.43;3.90;;;;;;;19.36;99.06;97048.78;4957770;28;20231;-63
2023/08/02 10:50:53;;;;;;;5.37;3.80;;;;;;;19.48;97.30;97044.16;4955145;28;20247;-63
2023/08/02 10:53:20;;;;;;;6.57;3.97;;;;;;;19.52;97.13;97039.97;4955158;28;20222;-64
2023/08/02 10:56:03;;;;;;;7.80;3.93;;;;;;;19.51;97.40;97019.84;4956795;28;20230;-64
2023/08/02 10:58:51;;;;;;;8.23;4.10;;;;;;;19.60;96.14;97028.16;4953218;28;20250;-64
2023/08/02 11:01:18;;;;;;;9.20;3.60;;;;;;;19.71;93.68;97031.72;4955392;28;20217;-63
2023/08/02 11:03:45;;;;;;;5.63;3.77;;;;;;;19.86;93.57;97034.50;4953812;28;20925;-63
2023/08/02 11:06:27;;;;;;;5.37;3.97;;;;;;;19.91;96.12;97031.94;4954973;28;20245;-63
2023/08/02 11:08:53;;;;;;;9.23;4.00;;;;;;;19.85;93.64;97021.50;4952726;28;20257;-63
2023/08/02 11:11:30;;;;;;;6.53;3.77;;;;;;;20.09;91.70;97034.47;4953265;28;20582;-63
2023/08/02 11:13:56;;;;;;;6.37;3.60;;;;;;;20.03;94.43;97029.13;4956061;28;20632;-63
2023/08/02 11:16:23;;;;;;;9.77;3.77;;;;;;;20.08;90.80;97012.50;4953732;28;20246;-63
2023/08/02 11:18:50;;;;;;;7.17;4.07;;;;;;;20.15;89.25;97026.28;4967455;28;20235;-63
2023/08/02 11:21:17;;;;;;;9.03;3.90;;;;;;;20.02;90.48;97032.03;4951992;28;20301;-63
2023/08/02 11:23:49;;;;;;;8.70;3.60;;;;;;;20.08;90.96;97022.28;4972233;28;20567;-63
2023/08/02 11:26:17;;;;;;;5.40;3.70;;;;;;;20.13;89.16;97020.47;4954362;28;20232;-64
2023/08/02 11:28:45;;;;;;;7.53;3.80;;;;;;;20.22;91.18;97010.19;4952313;28;20247;-64
2023/08/02 11:31:12;;;;;;;7.93;3.80;;;;;;;20.16;90.20;97017.28;4954656;28;20225;-64
2023/08/02 11:33:40;;;;;;;5.30;3.57;;;;;;;20.25;91.61;97004.41;4951783;28;20707;-64
2023/08/02 11:36:07;;;;;;;6.73;3.03;;;;;;;20.27;90.93;97009.44;4957203;28;20334;-64
2023/08/02 11:38:34;;;;;;;5.30;3.40;;;;;;;20.42;87.31;97017.50;4953572;28;20231;-64